Time;durP1;ratioP1;P1;durP2;ratioP2;P2;SDS_P1;SDS_P2;PMS_P1;PMS_P2;Temp;Humidity;BMP_temperature;BMP_pressure;BME280_temperature;BME280_humidity;BME280_pressure;Samples;Min_cycle;Max_cycle;Signal;HPM_P1;HPM_P2
2022/12/03 00:02:14;;;;;;;3.40;2.42;;;9.90;99.90;;;;;;5111474;28;20038;-49
2022/12/03 00:04:40;;;;;;;3.80;2.70;;;10.30;99.90;;;;;;5111402;28;20031;-49
2022/12/03 00:07:05;;;;;;;3.22;2.50;;;11.80;99.90;;;;;;5111421;28;20024;-49
2022/12/03 00:09:31;;;;;;;3.92;2.55;;;13.60;99.50;;;;;;5110958;28;20393;-49
2022/12/03 00:11:57;;;;;;;3.45;2.53;;;13.90;97.80;;;;;;5111365;28;20099;-49
2022/12/03 00:14:23;;;;;;;3.38;2.60;;;13.60;97.70;;;;;;5111220;28;20439;-47
2022/12/03 00:16:48;;;;;;;2.75;2.00;;;12.90;98.30;;;;;;5111259;28;20023;-47
2022/12/03 00:19:14;;;;;;;3.00;2.17;;;12.20;99.10;;;;;;5109491;28;20023;-49
2022/12/03 00:21:40;;;;;;;3.85;2.50;;;11.60;99.90;;;;;;5111283;28;20059;-48
2022/12/03 00:24:05;;;;;;;4.65;2.90;;;11.00;99.90;;;;;;5111228;28;20032;-49
2022/12/03 00:26:31;;;;;;;3.97;2.60;;;10.70;99.90;;;;;;5111116;28;20045;-48
2022/12/03 00:28:57;;;;;;;2.90;2.30;;;10.30;99.90;;;;;;5110674;28;20445;-47
2022/12/03 00:31:23;;;;;;;3.50;2.80;;;10.10;99.90;;;;;;5109985;28;20020;-50
2022/12/03 00:33:50;;;;;;;4.78;2.90;;;10.10;99.90;;;;;;5111402;28;20095;-48
2022/12/03 00:36:16;;;;;;;4.55;2.50;;;11.20;99.90;;;;;;5111050;28;20092;-48
2022/12/03 00:38:42;;;;;;;4.00;2.72;;;13.00;99.90;;;;;;5110526;28;20560;-48
2022/12/03 00:41:07;;;;;;;3.65;2.70;;;13.80;98.20;;;;;;5111005;28;20122;-49
2022/12/03 00:43:33;;;;;;;4.10;2.67;;;13.60;97.70;;;;;;5110958;28;20022;-50
2022/12/03 00:45:59;;;;;;;3.85;2.92;;;13.00;98.20;;;;;;5110978;28;20016;-50
2022/12/03 00:48:24;;;;;;;4.30;2.80;;;12.40;98.90;;;;;;5110636;28;20049;-50
2022/12/03 00:50:50;;;;;;;4.60;2.90;;;11.70;99.70;;;;;;5110904;28;20070;-51
2022/12/03 00:53:16;;;;;;;5.55;2.80;;;11.20;99.90;;;;;;5111151;28;20080;-48
2022/12/03 00:55:41;;;;;;;5.03;2.90;;;10.80;99.90;;;;;;5111090;28;20027;-50
2022/12/03 00:58:08;;;;;;;6.03;3.25;;;10.40;99.90;;;;;;5110276;28;20275;-50
2022/12/03 01:00:34;;;;;;;3.88;3.00;;;10.20;99.90;;;;;;5111033;28;20408;-50
2022/12/03 01:03:00;;;;;;;4.55;3.08;;;9.90;99.90;;;;;;5111033;28;20536;-50
2022/12/03 01:05:26;;;;;;;4.70;2.90;;;10.70;99.90;;;;;;5110871;28;20098;-49
2022/12/03 01:07:51;;;;;;;4.88;3.20;;;12.30;99.90;;;;;;5110431;28;20054;-50
2022/12/03 01:10:17;;;;;;;6.28;3.58;;;13.70;98.70;;;;;;5110481;28;20035;-48
2022/12/03 01:12:43;;;;;;;4.75;3.30;;;13.70;97.60;;;;;;5112113;28;20035;-47
2022/12/03 01:15:09;;;;;;;5.05;3.65;;;13.20;97.80;;;;;;5114502;28;20028;-48
2022/12/03 01:17:34;;;;;;;4.70;3.53;;;12.60;98.50;;;;;;5114443;28;20024;-50
2022/12/03 01:20:00;;;;;;;4.82;3.70;;;11.90;99.30;;;;;;5113862;28;20032;-49
2022/12/03 01:22:26;;;;;;;4.57;3.53;;;11.40;99.90;;;;;;5114244;28;20031;-49
2022/12/03 01:24:52;;;;;;;6.20;3.92;;;10.90;99.90;;;;;;5114333;27;20038;-47
2022/12/03 01:27:17;;;;;;;6.75;4.38;;;10.50;99.90;;;;;;5113891;28;20031;-47
2022/12/03 01:29:43;;;;;;;6.43;4.18;;;10.30;99.90;;;;;;5113776;28;20034;-48
2022/12/03 01:32:15;;;;;;;5.97;4.03;;;10.00;99.90;;;;;;5114151;28;20042;-50
2022/12/03 01:34:46;;;;;;;6.60;4.55;;;9.90;99.90;;;;;;5114072;28;20181;-49
2022/12/03 01:37:12;;;;;;;7.55;4.43;;;9.70;99.90;;;;;;5113979;28;20072;-50
2022/12/03 01:39:38;;;;;;;7.03;4.50;;;10.00;99.90;;;;;;5112031;28;20027;-50
2022/12/03 01:42:05;;;;;;;5.50;4.00;;;11.50;99.90;;;;;;5114022;28;20130;-47
2022/12/03 01:44:32;;;;;;;5.82;3.80;;;13.30;99.70;;;;;;5113857;28;20020;-48
2022/12/03 01:47:01;;;;;;;6.22;4.40;;;14.10;97.60;;;;;;5113645;28;20024;-48
2022/12/03 01:49:32;;;;;;;6.65;4.15;;;13.80;97.20;;;;;;5113573;28;20058;-48
2022/12/03 01:51:59;;;;;;;6.00;4.60;;;13.10;97.70;;;;;;5113906;28;20026;-49
2022/12/03 01:54:29;;;;;;;6.38;4.50;;;12.40;98.50;;;;;;5113770;28;20024;-48
2022/12/03 01:56:55;;;;;;;6.80;4.28;;;11.70;99.50;;;;;;5113728;28;20067;-49
2022/12/03 01:59:29;;;;;;;6.18;4.70;;;11.20;99.90;;;;;;5113125;28;20067;-48
2022/12/03 02:01:55;;;;;;;6.70;4.80;;;10.80;99.90;;;;;;5113604;28;20024;-50
2022/12/03 02:04:21;;;;;;;7.35;4.90;;;10.40;99.90;;;;;;5113528;28;20043;-50
2022/12/03 02:06:47;;;;;;;7.85;5.00;;;10.10;99.90;;;;;;5112213;28;20370;-48
2022/12/03 02:09:13;;;;;;;7.57;4.95;;;9.90;99.90;;;;;;5112987;28;20034;-50
2022/12/03 02:11:45;;;;;;;7.13;4.97;;;9.70;99.90;;;;;;5113575;27;20437;-48
2022/12/03 02:14:15;;;;;;;5.43;4.47;;;9.80;99.90;;;;;;5113595;28;20397;-48
2022/12/03 02:16:42;;;;;;;7.45;5.10;;;11.20;99.90;;;;;;5113269;27;20043;-48
2022/12/03 02:19:33;;;;;;;8.10;5.22;;;13.00;99.90;;;;;;5113150;28;20027;-49
2022/12/03 02:22:07;;;;;;;7.03;4.95;;;13.90;97.70;;;;;;5113452;28;20035;-48
2022/12/03 02:24:39;;;;;;;6.82;4.85;;;13.70;97.20;;;;;;5112932;28;20532;-48
2022/12/03 02:27:05;;;;;;;7.55;5.28;;;13.10;97.70;;;;;;5113013;28;20023;-49
2022/12/03 02:29:31;;;;;;;7.68;4.93;;;12.40;98.50;;;;;;5112605;28;20085;-48
2022/12/03 02:31:56;;;;;;;7.05;5.05;;;11.70;99.40;;;;;;5112819;28;20027;-48
2022/12/03 02:34:44;;;;;;;6.63;5.05;;;11.20;99.90;;;;;;5112897;28;20107;-49
2022/12/03 02:37:22;;;;;;;7.38;5.18;;;10.70;99.90;;;;;;5112835;28;20039;-50
2022/12/03 02:39:54;;;;;;;7.93;5.63;;;10.40;99.90;;;;;;5112295;28;20169;-48
2022/12/03 02:42:35;;;;;;;9.43;5.45;;;10.00;99.90;;;;;;5112779;28;20512;-47
2022/12/03 02:45:13;;;;;;;8.20;5.47;;;9.80;99.90;;;;;;5112956;28;20023;-49
2022/12/03 02:47:43;;;;;;;8.15;5.10;;;9.60;99.90;;;;;;5112495;28;20232;-47
2022/12/03 02:50:11;;;;;;;7.50;5.20;;;9.50;99.90;;;;;;5112403;28;20305;-48
2022/12/03 02:52:38;;;;;;;8.15;5.28;;;9.40;99.90;;;;;;5112557;28;20020;-48
2022/12/03 02:55:05;;;;;;;8.27;5.65;;;9.30;99.90;;;;;;5112730;27;20040;-49
2022/12/03 02:57:31;;;;;;;7.95;5.68;;;9.30;99.90;;;;;;5112371;28;20461;-50
2022/12/03 02:59:57;;;;;;;8.00;5.53;;;9.20;99.90;;;;;;5112067;28;20450;-50
2022/12/03 03:02:22;;;;;;;8.25;5.78;;;9.20;99.90;;;;;;5112292;28;20023;-51
2022/12/03 03:04:48;;;;;;;7.38;5.25;;;9.80;99.90;;;;;;5112237;28;20031;-50
2022/12/03 03:07:14;;;;;;;10.23;5.85;;;11.50;99.90;;;;;;5111972;28;20032;-47
2022/12/03 03:09:40;;;;;;;9.05;5.75;;;13.30;99.70;;;;;;5110535;28;20161;-48
2022/12/03 03:12:06;;;;;;;7.25;5.30;;;14.20;97.40;;;;;;5110862;28;20118;-49
2022/12/03 03:14:32;;;;;;;8.40;5.30;;;14.00;96.90;;;;;;5112146;28;20034;-47
2022/12/03 03:16:58;;;;;;;6.82;5.13;;;13.30;97.30;;;;;;5111976;28;20028;-48
2022/12/03 03:19:27;;;;;;;9.02;5.55;;;12.60;98.10;;;;;;5111522;28;20032;-48
2022/12/03 03:21:53;;;;;;;7.47;5.35;;;11.90;99.10;;;;;;5111962;28;20027;-49
2022/12/03 03:24:20;;;;;;;9.15;5.90;;;11.30;99.90;;;;;;5111985;28;20385;-50
2022/12/03 03:26:46;;;;;;;8.30;5.28;;;10.80;99.90;;;;;;5111792;28;20023;-50
2022/12/03 03:29:12;;;;;;;7.95;5.78;;;10.40;99.90;;;;;;5111405;28;20554;-50
2022/12/03 03:31:39;;;;;;;8.02;6.05;;;10.10;99.90;;;;;;5111824;28;20063;-48
2022/12/03 03:34:04;;;;;;;8.55;5.63;;;10.20;99.90;;;;;;5111910;28;20019;-48
2022/12/03 03:36:31;;;;;;;7.65;5.60;;;11.50;99.90;;;;;;5110090;28;20384;-49
2022/12/03 03:38:57;;;;;;;6.45;4.53;;;13.30;99.30;;;;;;5111026;28;20031;-49
2022/12/03 03:41:25;;;;;;;8.63;5.35;;;13.80;97.50;;;;;;5111803;28;20050;-48
2022/12/03 03:43:51;;;;;;;9.07;5.88;;;13.40;97.30;;;;;;5112162;28;20435;-48
2022/12/03 03:46:18;;;;;;;7.80;5.20;;;12.80;97.90;;;;;;5111740;28;20031;-48
2022/12/03 03:48:44;;;;;;;6.85;5.20;;;12.20;98.70;;;;;;5111498;28;20051;-47
2022/12/03 03:51:11;;;;;;;8.32;5.82;;;11.60;99.50;;;;;;5111681;28;20073;-48
2022/12/03 03:53:43;;;;;;;8.02;5.63;;;11.00;99.90;;;;;;5111501;28;20035;-48
2022/12/03 03:56:09;;;;;;;7.35;5.03;;;10.60;99.90;;;;;;5111506;28;20061;-50
2022/12/03 03:58:36;;;;;;;8.38;5.57;;;10.30;99.90;;;;;;5111187;28;20100;-48
2022/12/03 04:01:01;;;;;;;7.85;5.60;;;10.00;99.90;;;;;;5111506;28;20052;-47
2022/12/03 04:03:28;;;;;;;8.85;5.75;;;9.90;99.90;;;;;;5111468;28;20024;-48
2022/12/03 04:05:54;;;;;;;6.93;4.95;;;11.00;99.90;;;;;;5111338;28;20115;-48
2022/12/03 04:08:19;;;;;;;8.65;5.53;;;12.70;99.90;;;;;;5110703;28;20099;-48
2022/12/03 04:13:29;;;;;;;7.05;5.35;;;13.60;97.20;;;;;;5111424;28;20034;-48
2022/12/03 04:15:55;;;;;;;7.72;5.32;;;13.00;97.50;;;;;;5111327;28;20024;-48
2022/12/03 04:23:49;;;;;;;7.00;5.20;;;11.20;99.90;;;;;;5111746;28;19911;-50
2022/12/03 04:28:59;;;;;;;8.45;5.60;;;10.30;99.90;;;;;;5110874;28;20061;-49
2022/12/03 04:36:54;;;;;;;8.43;5.45;;;11.40;99.90;;;;;;5111317;28;20045;-49
2022/12/03 04:39:20;;;;;;;8.13;4.85;;;13.40;99.00;;;;;;5110376;28;20032;-48
2022/12/03 04:41:45;;;;;;;8.32;5.57;;;13.80;97.30;;;;;;5111118;28;20469;-49
2022/12/03 04:46:55;;;;;;;6.47;4.95;;;12.90;97.70;;;;;;5112765;28;20039;-48
2022/12/03 04:49:21;;;;;;;7.38;5.22;;;12.10;98.60;;;;;;5114475;28;20028;-49
2022/12/03 04:51:47;;;;;;;7.72;5.70;;;11.60;99.50;;;;;;5114883;28;20106;-48
2022/12/03 04:54:13;;;;;;;6.88;4.90;;;11.00;99.90;;;;;;5114865;28;20425;-50
2022/12/03 04:56:38;;;;;;;7.15;5.60;;;10.60;99.90;;;;;;5114766;28;20038;-49
2022/12/03 04:59:04;;;;;;;8.43;5.78;;;10.30;99.90;;;;;;5114407;28;20362;-49
2022/12/03 05:01:29;;;;;;;8.80;6.18;;;10.00;99.90;;;;;;5114690;28;20506;-48
2022/12/03 05:03:55;;;;;;;9.30;6.03;;;10.00;99.90;;;;;;5113513;28;20065;-49
2022/12/03 05:06:21;;;;;;;7.60;5.50;;;11.20;99.90;;;;;;5114353;28;20111;-47
2022/12/03 05:08:46;;;;;;;7.03;5.15;;;13.00;99.60;;;;;;5114054;28;20028;-48
2022/12/03 05:11:12;;;;;;;7.07;5.35;;;13.80;97.80;;;;;;5114579;28;20072;-48
2022/12/03 05:13:38;;;;;;;8.57;5.30;;;13.60;97.00;;;;;;5114793;28;20017;-49
2022/12/03 05:16:03;;;;;;;7.18;5.10;;;13.10;97.40;;;;;;5114362;28;20023;-48
2022/12/03 05:18:29;;;;;;;8.00;5.57;;;12.30;98.20;;;;;;5113889;28;20522;-47
2022/12/03 05:20:55;;;;;;;8.30;6.00;;;11.70;99.10;;;;;;5114801;28;20376;-47
2022/12/03 05:23:21;;;;;;;7.35;5.60;;;11.20;99.90;;;;;;5114427;28;20046;-49
2022/12/03 05:25:46;;;;;;;6.88;4.90;;;10.70;99.90;;;;;;5114208;28;20035;-49
2022/12/03 05:28:12;;;;;;;7.93;5.68;;;10.40;99.90;;;;;;5113922;28;20085;-49
2022/12/03 05:30:37;;;;;;;8.70;6.00;;;10.10;99.90;;;;;;5114229;27;20024;-48
2022/12/03 05:33:03;;;;;;;7.90;5.82;;;9.90;99.90;;;;;;5114541;28;20152;-50
2022/12/03 05:35:29;;;;;;;7.10;5.00;;;10.70;99.90;;;;;;5113954;28;20027;-47
2022/12/03 05:37:54;;;;;;;7.90;5.18;;;12.30;99.90;;;;;;5113980;28;20030;-50
2022/12/03 05:40:20;;;;;;;7.57;5.18;;;13.70;98.00;;;;;;5113721;28;20469;-49
2022/12/03 05:42:52;;;;;;;6.72;5.30;;;13.70;97.00;;;;;;5114042;27;20488;-50
2022/12/03 05:45:26;;;;;;;7.75;5.35;;;13.30;97.20;;;;;;5113834;28;20027;-47
2022/12/03 05:47:53;;;;;;;7.10;5.70;;;12.60;98.00;;;;;;5113610;28;20488;-50
2022/12/03 05:50:20;;;;;;;7.28;5.18;;;11.90;98.90;;;;;;5114107;28;20128;-48
2022/12/03 05:52:46;;;;;;;8.10;5.47;;;11.30;99.70;;;;;;5113722;28;20485;-48
2022/12/03 05:55:12;;;;;;;8.57;5.60;;;10.80;99.90;;;;;;5113758;28;20034;-48
2022/12/03 05:57:38;;;;;;;7.90;5.40;;;10.40;99.90;;;;;;5113262;27;20320;-49
2022/12/03 06:00:06;;;;;;;8.48;6.05;;;10.20;99.90;;;;;;5113155;28;20024;-50
2022/12/03 06:02:32;;;;;;;7.60;5.57;;;9.90;99.90;;;;;;5113962;28;20038;-50
2022/12/03 06:04:57;;;;;;;7.47;5.53;;;10.40;99.90;;;;;;5113942;28;20020;-48
2022/12/03 06:07:23;;;;;;;8.48;5.55;;;11.90;99.90;;;;;;5113367;28;20024;-48
2022/12/03 06:09:49;;;;;;;7.72;5.60;;;13.50;98.60;;;;;;5112993;28;20460;-50
2022/12/03 06:12:14;;;;;;;7.40;5.30;;;13.90;97.00;;;;;;5113479;28;20024;-49
2022/12/03 06:14:40;;;;;;;7.53;5.57;;;13.50;97.00;;;;;;5113319;28;20068;-49
2022/12/03 06:17:05;;;;;;;7.20;5.20;;;12.80;97.60;;;;;;5113248;28;20089;-48
2022/12/03 06:19:32;;;;;;;7.60;5.45;;;12.10;98.50;;;;;;5112796;28;20039;-49
2022/12/03 06:21:58;;;;;;;8.23;5.63;;;11.50;99.40;;;;;;5113215;28;20537;-50
2022/12/03 06:24:23;;;;;;;8.35;5.55;;;11.00;99.90;;;;;;5113356;28;20110;-49
2022/12/03 06:26:49;;;;;;;8.55;5.88;;;10.60;99.90;;;;;;5113023;28;20385;-48
2022/12/03 06:29:14;;;;;;;7.75;5.50;;;10.20;99.90;;;;;;5112644;28;20076;-49
2022/12/03 06:31:40;;;;;;;8.60;5.93;;;10.00;99.90;;;;;;5113545;28;20090;-49
2022/12/03 06:34:06;;;;;;;8.63;6.03;;;10.10;99.90;;;;;;5112909;28;20031;-47
2022/12/03 06:36:31;;;;;;;9.15;5.72;;;11.30;99.90;;;;;;5112939;28;20023;-49
2022/12/03 06:38:57;;;;;;;8.38;5.32;;;13.00;99.40;;;;;;5112288;28;20107;-50
2022/12/03 06:41:23;;;;;;;7.88;5.43;;;13.80;97.30;;;;;;5112866;28;20024;-49
2022/12/03 06:43:48;;;;;;;8.30;5.40;;;13.60;97.30;;;;;;5112766;28;20096;-47
2022/12/03 06:46:14;;;;;;;8.55;4.95;;;13.00;97.40;;;;;;5112716;28;20099;-48
2022/12/03 06:48:39;;;;;;;8.18;6.05;;;12.30;98.10;;;;;;5111950;28;20020;-50
2022/12/03 06:51:05;;;;;;;7.65;5.68;;;11.70;99.00;;;;;;5112608;28;20020;-48
2022/12/03 06:53:33;;;;;;;7.20;5.57;;;11.20;99.80;;;;;;5112808;28;20111;-47
2022/12/03 06:55:59;;;;;;;7.78;5.18;;;10.70;99.90;;;;;;5112554;28;20028;-48
2022/12/03 06:58:24;;;;;;;7.53;5.25;;;10.30;99.90;;;;;;5112219;28;20045;-49
2022/12/03 07:00:50;;;;;;;8.70;5.90;;;10.10;99.90;;;;;;5112555;28;20063;-48
2022/12/03 07:03:15;;;;;;;8.65;5.60;;;9.90;99.90;;;;;;5112309;28;20066;-49
2022/12/03 07:05:41;;;;;;;7.10;5.35;;;9.70;99.90;;;;;;5112473;28;20039;-47
2022/12/03 07:08:07;;;;;;;8.25;5.70;;;9.60;99.90;;;;;;5111694;28;20118;-50
2022/12/03 07:10:32;;;;;;;8.95;6.00;;;9.50;99.90;;;;;;5111408;28;20106;-48
2022/12/03 07:12:58;;;;;;;7.88;6.05;;;9.40;99.90;;;;;;5112279;28;20024;-48
2022/12/03 07:15:24;;;;;;;9.00;5.75;;;9.30;99.90;;;;;;5112251;28;20027;-50
2022/12/03 07:17:49;;;;;;;8.15;5.65;;;9.20;99.90;;;;;;5111847;28;20030;-49
2022/12/03 07:20:15;;;;;;;8.20;5.50;;;9.20;99.90;;;;;;5112003;28;20064;-48
2022/12/03 07:22:41;;;;;;;7.65;5.32;;;9.20;99.90;;;;;;5112235;28;20031;-48
2022/12/03 07:25:07;;;;;;;8.13;5.75;;;9.10;99.90;;;;;;5112280;28;20434;-50
2022/12/03 07:27:33;;;;;;;8.45;5.55;;;9.10;99.90;;;;;;5111970;28;20074;-50
2022/12/03 07:29:58;;;;;;;10.23;6.57;;;9.10;99.90;;;;;;5111544;28;20485;-48
2022/12/03 07:32:24;;;;;;;7.82;5.88;;;9.00;99.90;;;;;;5111882;28;20064;-50
2022/12/03 07:34:49;;;;;;;9.15;5.93;;;9.00;99.90;;;;;;5111980;28;20403;-50
2022/12/03 07:37:15;;;;;;;9.45;6.18;;;9.00;99.90;;;;;;5111898;28;20102;-47
2022/12/03 07:39:41;;;;;;;8.10;5.65;;;9.00;99.90;;;;;;5111202;28;20069;-49
2022/12/03 07:42:08;;;;;;;9.20;6.43;;;9.00;99.90;;;;;;5111782;28;20058;-48
2022/12/03 07:44:34;;;;;;;8.73;5.55;;;9.00;99.90;;;;;;5111833;28;20024;-50
2022/12/03 07:46:59;;;;;;;8.13;5.82;;;8.90;99.90;;;;;;5111535;28;20508;-50
2022/12/03 07:49:25;;;;;;;8.77;5.45;;;8.90;99.90;;;;;;5110227;28;20100;-49
2022/12/03 07:51:55;;;;;;;8.68;5.90;;;8.90;99.90;;;;;;5111766;28;20046;-50
2022/12/03 07:54:22;;;;;;;8.57;6.07;;;8.90;99.90;;;;;;5111607;28;20016;-47
2022/12/03 07:56:48;;;;;;;8.82;6.20;;;8.90;99.90;;;;;;5111638;28;20104;-49
2022/12/03 07:59:15;;;;;;;8.55;5.57;;;8.90;99.90;;;;;;5111044;28;20063;-48
2022/12/03 08:01:40;;;;;;;9.45;6.28;;;8.90;99.90;;;;;;5111587;28;20032;-49
2022/12/03 08:04:07;;;;;;;9.27;6.18;;;8.90;99.90;;;;;;5111983;28;20027;-49
2022/12/03 08:06:33;;;;;;;8.95;6.38;;;8.90;99.90;;;;;;5111335;28;20119;-48
2022/12/03 08:08:58;;;;;;;9.23;5.97;;;8.90;99.90;;;;;;5110973;28;20103;-48
2022/12/03 08:11:27;;;;;;;8.65;6.35;;;8.90;99.90;;;;;;5111453;28;20021;-49
2022/12/03 08:13:53;;;;;;;8.13;6.28;;;8.80;99.90;;;;;;5111370;28;20392;-48
2022/12/03 08:16:21;;;;;;;8.68;6.13;;;8.90;99.90;;;;;;5111388;28;20020;-48
2022/12/03 08:18:47;;;;;;;8.75;6.28;;;8.90;99.90;;;;;;5110941;28;20038;-49
2022/12/03 08:21:17;;;;;;;10.80;6.80;;;8.80;99.90;;;;;;5112130;28;20020;-47
2022/12/03 08:23:43;;;;;;;10.20;6.60;;;8.80;99.90;;;;;;5115733;28;20035;-47
2022/12/03 08:26:21;;;;;;;9.63;6.50;;;8.90;99.90;;;;;;5115498;27;20024;-47
2022/12/03 08:28:47;;;;;;;8.90;6.38;;;8.80;99.90;;;;;;5115146;28;20084;-48
2022/12/03 08:31:24;;;;;;;8.88;6.30;;;8.90;99.90;;;;;;5115489;28;20024;-48
2022/12/03 08:33:52;;;;;;;9.88;6.63;;;8.80;99.90;;;;;;5115606;28;20047;-49
2022/12/03 08:36:24;;;;;;;9.38;5.93;;;8.80;99.90;;;;;;5115475;28;20027;-50
2022/12/03 08:39:13;;;;;;;9.07;6.35;;;8.80;99.90;;;;;;5114837;28;20012;-49
2022/12/03 08:44:25;;;;;;;9.93;6.43;;;8.80;99.90;;;;;;5115445;28;20098;-48
2022/12/03 08:47:05;;;;;;;11.40;7.38;;;8.80;99.90;;;;;;5115021;28;20077;-48
2022/12/03 08:49:31;;;;;;;10.68;6.70;;;8.80;99.90;;;;;;5114695;28;20028;-49
2022/12/03 08:52:00;;;;;;;10.38;6.65;;;8.80;99.90;;;;;;5115045;28;20023;-48
2022/12/03 08:54:26;;;;;;;9.45;6.18;;;8.80;99.90;;;;;;5114997;28;20026;-48
2022/12/03 08:56:52;;;;;;;12.75;6.75;;;8.80;99.90;;;;;;5114957;28;20049;-48
2022/12/03 08:59:30;;;;;;;8.70;6.20;;;8.80;99.90;;;;;;5114480;28;20031;-48
2022/12/03 09:01:57;;;;;;;8.23;5.80;;;8.80;99.90;;;;;;5114780;28;20492;-48
2022/12/03 09:04:26;;;;;;;9.30;6.82;;;8.80;99.90;;;;;;5114834;28;20031;-48
2022/12/03 09:06:53;;;;;;;10.38;7.10;;;8.80;99.90;;;;;;5114600;27;20031;-49
2022/12/03 09:09:19;;;;;;;9.88;6.28;;;8.80;99.90;;;;;;5114521;28;20051;-51
2022/12/03 09:11:45;;;;;;;9.63;6.05;;;8.80;99.90;;;;;;5114622;28;20112;-48
2022/12/03 09:14:11;;;;;;;9.00;6.35;;;8.80;99.90;;;;;;5114572;28;20079;-47
2022/12/03 09:16:37;;;;;;;9.35;6.35;;;8.80;99.90;;;;;;5114408;27;20091;-50
2022/12/03 09:19:03;;;;;;;10.02;7.00;;;8.80;99.90;;;;;;5114101;28;20020;-48
2022/12/03 09:21:29;;;;;;;12.27;6.82;;;8.80;99.90;;;;;;5114502;28;20019;-50
2022/12/03 09:23:54;;;;;;;10.90;6.95;;;8.80;99.90;;;;;;5114513;28;20107;-48
2022/12/03 09:26:20;;;;;;;9.48;6.35;;;8.80;99.90;;;;;;5114406;28;20027;-50
2022/12/03 09:28:47;;;;;;;9.30;6.30;;;8.80;99.90;;;;;;5114298;28;20132;-50
2022/12/03 09:31:13;;;;;;;10.10;6.22;;;8.80;99.90;;;;;;5114167;28;20028;-50
2022/12/03 09:33:39;;;;;;;9.77;6.57;;;8.80;99.90;;;;;;5113207;28;20035;-49
2022/12/03 09:36:05;;;;;;;9.80;6.25;;;8.80;99.90;;;;;;5113660;28;20032;-48
2022/12/03 09:38:31;;;;;;;10.35;6.53;;;8.80;99.90;;;;;;5113651;28;20030;-50
2022/12/03 09:40:57;;;;;;;10.13;6.32;;;8.80;99.90;;;;;;5114033;28;20040;-48
2022/12/03 09:43:23;;;;;;;8.93;6.50;;;8.80;99.90;;;;;;5114070;28;20545;-48
2022/12/03 09:45:48;;;;;;;9.00;6.57;;;8.80;99.90;;;;;;5113921;28;20032;-51
2022/12/03 09:48:16;;;;;;;9.05;6.53;;;8.80;99.90;;;;;;5113559;28;20428;-49
2022/12/03 09:50:43;;;;;;;9.80;6.97;;;8.80;99.90;;;;;;5113944;28;20031;-50
2022/12/03 09:53:13;;;;;;;11.73;7.00;;;8.80;99.90;;;;;;5114024;28;20024;-47
2022/12/03 09:55:39;;;;;;;10.77;6.78;;;8.80;99.90;;;;;;5113795;28;20012;-49
2022/12/03 09:58:15;;;;;;;8.63;6.38;;;8.80;99.90;;;;;;5113195;28;20039;-49
2022/12/03 10:00:42;;;;;;;10.18;6.60;;;8.80;99.90;;;;;;5113790;28;20028;-50
2022/12/03 10:03:11;;;;;;;11.75;6.82;;;8.80;99.90;;;;;;5113548;28;20068;-48
2022/12/03 10:05:37;;;;;;;12.55;7.47;;;8.80;99.90;;;;;;5113647;28;20035;-48
2022/12/03 10:08:17;;;;;;;10.68;6.55;;;8.80;99.90;;;;;;5112846;28;20076;-49
2022/12/03 10:10:43;;;;;;;9.95;7.15;;;8.70;99.90;;;;;;5113664;28;20035;-48
2022/12/03 10:13:19;;;;;;;9.93;6.57;;;8.70;99.90;;;;;;5113498;28;20038;-47
2022/12/03 10:15:44;;;;;;;10.93;7.18;;;8.80;99.90;;;;;;5113584;28;20020;-50
2022/12/03 10:18:33;;;;;;;10.93;7.50;;;8.80;99.90;;;;;;5113021;28;20034;-48
2022/12/03 10:20:58;;;;;;;10.85;7.38;;;8.80;99.90;;;;;;5113505;28;20069;-50
2022/12/03 10:23:27;;;;;;;11.73;7.22;;;8.80;99.90;;;;;;5113343;28;20047;-48
2022/12/03 10:25:57;;;;;;;11.93;6.50;;;8.80;99.90;;;;;;5113277;28;20538;-49
2022/12/03 10:28:42;;;;;;;11.00;7.03;;;8.80;99.90;;;;;;5112912;28;20036;-50
2022/12/03 10:31:10;;;;;;;10.90;7.80;;;8.80;99.90;;;;;;5113356;28;20020;-50
2022/12/03 10:33:40;;;;;;;12.18;6.93;;;8.80;99.90;;;;;;5113383;28;20258;-50
2022/12/03 10:36:16;;;;;;;11.25;7.18;;;8.80;99.90;;;;;;5113102;28;20016;-49
2022/12/03 10:38:42;;;;;;;10.35;7.20;;;8.80;99.90;;;;;;5112639;28;20107;-49
2022/12/03 10:41:27;;;;;;;12.95;7.63;;;8.80;99.90;;;;;;5112983;28;20114;-50
2022/12/03 10:43:53;;;;;;;11.00;6.97;;;8.80;99.90;;;;;;5112808;28;20024;-49
2022/12/03 10:46:21;;;;;;;10.50;7.57;;;8.80;99.90;;;;;;5112760;28;20027;-49
2022/12/03 10:49:08;;;;;;;11.23;7.63;;;8.80;99.90;;;;;;5110855;28;20110;-49
2022/12/03 10:51:48;;;;;;;12.15;7.10;;;8.80;99.90;;;;;;5089354;28;20051;-49
2022/12/03 10:54:19;;;;;;;12.65;7.68;;;8.80;99.90;;;;;;5112916;28;20034;-48
2022/12/03 10:56:46;;;;;;;11.38;7.40;;;8.70;99.90;;;;;;5112707;28;20495;-49
2022/12/03 10:59:21;;;;;;;12.77;7.60;;;8.80;99.90;;;;;;5112140;28;20024;-48
2022/12/03 11:01:47;;;;;;;12.93;7.30;;;8.80;99.90;;;;;;5112719;28;20051;-49
2022/12/03 11:04:42;;;;;;;11.65;7.63;;;8.80;99.90;;;;;;5112496;28;20019;-50
2022/12/03 11:07:14;;;;;;;12.40;7.90;;;8.70;99.90;;;;;;5103149;28;20388;-48
2022/12/03 11:09:43;;;;;;;12.43;7.45;;;8.80;99.90;;;;;;5112025;28;20032;-48
2022/12/03 11:12:21;;;;;;;12.50;7.93;;;8.70;99.90;;;;;;5112321;28;20377;-49
2022/12/03 11:14:50;;;;;;;13.23;8.20;;;8.80;99.90;;;;;;5112304;28;20051;-48
2022/12/03 11:17:46;;;;;;;14.68;7.70;;;8.80;99.90;;;;;;5112243;28;20512;-49
2022/12/03 11:20:34;;;;;;;13.30;8.07;;;8.80;99.90;;;;;;5112171;28;20106;-50
2022/12/03 11:23:00;;;;;;;12.18;7.85;;;8.80;99.90;;;;;;5111807;28;20205;-48
2022/12/03 11:25:26;;;;;;;12.55;7.38;;;9.60;99.90;;;;;;5111959;28;20139;-47
2022/12/03 11:28:12;;;;;;;13.05;7.82;;;11.30;99.90;;;;;;5111564;28;20073;-48
2022/12/03 11:30:50;;;;;;;12.02;7.45;;;13.30;99.60;;;;;;5112065;28;20016;-48
2022/12/03 11:33:31;;;;;;;11.38;7.47;;;14.20;97.20;;;;;;5111894;28;20470;-50
2022/12/03 11:36:02;;;;;;;12.50;7.88;;;13.80;96.80;;;;;;5112090;28;20024;-49
2022/12/03 11:38:39;;;;;;;10.95;7.45;;;13.00;97.40;;;;;;5111563;28;20103;-50
2022/12/03 11:41:08;;;;;;;10.75;7.35;;;12.20;98.40;;;;;;5111887;28;20396;-48
2022/12/03 11:43:52;;;;;;;11.70;7.82;;;11.50;99.40;;;;;;5111820;28;20080;-51
2022/12/03 11:46:24;;;;;;;13.07;7.97;;;10.90;99.90;;;;;;5112306;28;20020;-50
2022/12/03 11:48:53;;;;;;;12.38;8.23;;;10.50;99.90;;;;;;5111326;28;20020;-48
2022/12/03 11:51:21;;;;;;;13.43;8.48;;;10.70;99.90;;;;;;5110420;28;20027;-50
2022/12/03 11:53:50;;;;;;;16.20;8.80;;;12.00;99.90;;;;;;5112018;28;20407;-50
2022/12/03 11:56:23;;;;;;;13.13;8.38;;;13.20;98.40;;;;;;5111024;28;20027;-49
2022/12/03 11:58:58;;;;;;;12.25;7.70;;;13.10;97.60;;;;;;5111062;28;20042;-48
2022/12/03 12:01:36;;;;;;;13.30;9.07;;;12.60;98.00;;;;;;5111772;28;20024;-48
2022/12/03 12:04:02;;;;;;;11.50;7.85;;;11.90;98.70;;;;;;5110571;28;20042;-48
2022/12/03 12:06:37;;;;;;;12.35;8.82;;;11.30;99.50;;;;;;5111613;28;20062;-50
2022/12/03 12:09:03;;;;;;;12.48;8.38;;;10.90;99.90;;;;;;5110915;28;20057;-49
2022/12/03 12:11:31;;;;;;;13.50;8.55;;;10.40;99.90;;;;;;5111656;28;20023;-48
2022/12/03 12:13:59;;;;;;;12.40;8.50;;;10.10;99.90;;;;;;5111539;28;20042;-50
2022/12/03 12:16:40;;;;;;;12.27;7.93;;;9.80;99.90;;;;;;5111413;28;20031;-48
2022/12/03 12:19:27;;;;;;;13.73;8.23;;;9.60;99.90;;;;;;5110952;28;20485;-48
2022/12/03 12:21:53;;;;;;;13.57;8.70;;;9.50;99.90;;;;;;5111353;28;20092;-48
2022/12/03 12:24:32;;;;;;;12.52;7.93;;;9.40;99.90;;;;;;5111286;28;20469;-50
2022/12/03 12:27:05;;;;;;;13.48;8.82;;;9.30;99.90;;;;;;5111168;28;20419;-49
2022/12/03 12:29:31;;;;;;;12.98;9.00;;;9.20;99.90;;;;;;5110797;28;20020;-51
2022/12/03 12:32:09;;;;;;;26.35;17.23;;;9.10;99.90;;;;;;5111200;28;20449;-50
2022/12/03 12:34:50;;;;;;;24.35;16.70;;;8.90;99.90;;;;;;5111182;28;20024;-50
2022/12/03 12:37:24;;;;;;;28.75;16.65;;;8.20;99.90;;;;;;5111198;28;20031;-48
2022/12/03 12:39:54;;;;;;;27.08;17.27;;;8.10;99.90;;;;;;5110675;28;20031;-51
2022/12/03 12:42:37;;;;;;;26.00;16.52;;;8.20;99.90;;;;;;5111142;28;20031;-49
2022/12/03 12:45:20;;;;;;;26.48;15.77;;;8.10;99.90;;;;;;5111077;28;20530;-55
2022/12/03 12:47:59;;;;;;;25.70;16.13;;;8.20;99.90;;;;;;5110791;28;20031;-51
2022/12/03 12:50:24;;;;;;;24.95;15.90;;;8.20;99.90;;;;;;5110853;28;20059;-49
2022/12/03 12:53:02;;;;;;;23.65;14.82;;;8.20;99.90;;;;;;5111011;28;20051;-53
2022/12/03 12:55:27;;;;;;;27.40;15.48;;;8.30;99.90;;;;;;5110879;28;20398;-51
2022/12/03 12:57:58;;;;;;;25.35;14.98;;;8.30;99.90;;;;;;5110476;28;20485;-50
2022/12/03 13:00:23;;;;;;;24.60;14.85;;;8.40;99.90;;;;;;5110941;28;20400;-50
2022/12/03 13:02:59;;;;;;;21.75;14.23;;;9.80;99.90;;;;;;5110895;28;20494;-51
2022/12/03 13:05:30;;;;;;;19.30;12.45;;;11.70;99.90;;;;;;5111211;28;20024;-53
2022/12/03 13:07:56;;;;;;;22.27;14.18;;;13.50;98.20;;;;;;5112111;28;20024;-49
2022/12/03 13:10:42;;;;;;;22.95;13.85;;;13.50;94.00;;;;;;5114334;28;20026;-50
2022/12/03 13:13:13;;;;;;;20.00;13.23;;;12.50;95.40;;;;;;5114359;28;20035;-51
2022/12/03 13:16:02;;;;;;;20.98;14.07;;;11.80;96.50;;;;;;5114917;28;20107;-50
2022/12/03 13:18:52;;;;;;;22.52;13.57;;;10.90;97.90;;;;;;5113787;28;20062;-48